Airfield :







YOU CAN JOIN US ON...

 
LOGIN :

Register | Disclaimer

   EN    FR    IT 

 









Legend :    VFR   Marginal VFR   IFR   Intensive IFR   Very Intensive IFR
Visi :
Ceiling :
>= 8 km
>= 3000ft
5 to 8 km
1000 to 3000 ft
1500m to 5 km
500 to 1000 ft
800 to 1500m
200 to 500 ft
< 800m
< 200 ft
Symbols :   Thunderstorms  Fog  Heavy snow  Heavy precipitations  Wind > 20 kt







- Airport Elevation : 90 ft
- IATA code : YHU


CYHU - Montréal Saint-Hubert

CURRENT METAR :
  • 230500Z AUTO 02012G17KT 9SM CLR 08/M01 A3013 RMK SLP203

EXPIRED METARs :
  • 230400Z AUTO 01013KT 9SM CLR 09/01 A3014 RMK SLP208
  • 230300Z AUTO 02011G17KT 9SM CLR 11/M02 A3015 RMK SLP210

TAF TAF CYHU
Valid from the 23 at 06:00 until the 24 at 06:00 UTC


230538Z 2306/2406 02012G22KT P6SM SCT140
FM231200 03012G22KT P6SM SCT020 BKN100
FM231600 04012KT P6SM SCT030 BKN100
FM232100 07012KT P6SM BKN080
BECMG 2322/2324 07012G22KT
FM240100 07012G22KT P6SM -RA OVC050
PROB30 2402/2404 21/2SM SHRA BR
FM240400 07012KT 6SM -RA BR OVC030 RMK FCST BASED ON AUTO OBS. NXT FCST BY 231200Z
CZUL FIR / North America



MET'MAP, your aeronautical weather chart ! - Copyright ORBIFLY December 2007 - Disclaimer

ORBIFLY MET'MAP TEAM :

Programming & Development : Alexandra Zaïnal
Concept & Development : Baudouin d'Aumeries
Co-Development & Prog : Marc-Olivier Méhu
Technical & hardware support : Manuel Goepfert

Contact : metmap@orbifly.com




SOURCES & CREDITS :

   NOAA